»·PEaware :: N350KT KSEE-KVGT

N350KT :: KSEE-KVGT

FLIGHT INFORMATION

Flight Status: Arrived
Operator: Privately registered:
United States
More flights under this callsign
Pilot: Aundrey S. (17120)
Aircraft: BEECH AIRCRAFT PREMIER
(PRM1)
More flights by this aircraft type
Origin: KSEE Gillespie
United States
Destination: KVGT North Las Vegas
United States
More flights between these airports :: More routes between these airports
Route: JLI TRM TNP NTNDO1
File this flight plan on PilotEdge
Remarks:
Altitude:
(Current/Filed)
23,000ft
Speed:
(Current/Filed)
450kts
Departed: 02-Aug-21 08:39 PM
Arrived: 02-Aug-21 09:36 PM
Distance/Time
Traveled:
221nm/0:57
Distance/Time
To Go:
Arrived

Flight Plot

Page will automatically refresh every two minutes.

Flight plan parsing failed; only flown route is shown


Map Options




Map Legend


Flown Route
Filed Route
Departure Airport
Arrival Airport
Navaid (VOR, NDB)
Fix

Horizontal Profiles

Position Reports

Time Latitude Longitude Heading Altitude Ground
Speed
02-Aug-21 19:53 32.824925 -116.968925 14 383ft 0kts
02-Aug-21 19:55 32.824925 -116.968925 14 383ft 0kts
02-Aug-21 19:55 32.824925 -116.968925 14 383ft 0kts
02-Aug-21 19:56 32.824925 -116.968925 14 383ft 0kts
02-Aug-21 19:57 32.824925 -116.968925 14 383ft 0kts
02-Aug-21 19:58 32.824925 -116.968925 14 383ft 0kts
02-Aug-21 20:00 32.824925 -116.968925 14 383ft 0kts
02-Aug-21 20:00 32.824925 -116.968925 14 383ft 0kts
02-Aug-21 20:01 32.824925 -116.968925 14 383ft 0kts
02-Aug-21 20:02 32.824925 -116.968925 14 383ft 0kts
02-Aug-21 20:03 32.824925 -116.968925 14 383ft 0kts
02-Aug-21 20:04 32.824925 -116.968925 14 383ft 0kts
02-Aug-21 20:05 32.824925 -116.968925 14 383ft 0kts
02-Aug-21 20:06 32.824925 -116.968925 14 383ft 0kts
02-Aug-21 20:07 32.824925 -116.968925 14 383ft 0kts
02-Aug-21 20:08 32.824925 -116.968925 14 383ft 0kts
02-Aug-21 20:09 32.824925 -116.968925 14 383ft 0kts
02-Aug-21 20:10 32.824925 -116.968925 14 383ft 0kts
02-Aug-21 20:11 32.824925 -116.968925 14 383ft 0kts
02-Aug-21 20:12 32.824925 -116.968925 14 383ft 0kts
02-Aug-21 20:13 32.824925 -116.968925 14 383ft 0kts
02-Aug-21 20:14 32.824925 -116.968925 14 383ft 0kts
02-Aug-21 20:15 32.824925 -116.968925 14 383ft 0kts
02-Aug-21 20:16 32.824925 -116.968925 14 383ft 0kts
02-Aug-21 20:17 32.824925 -116.968925 14 383ft 0kts
02-Aug-21 20:18 32.824925 -116.968925 14 383ft 0kts
02-Aug-21 20:19 32.824925 -116.968925 14 383ft 0kts
02-Aug-21 20:20 32.824925 -116.968925 14 383ft 0kts
02-Aug-21 20:21 32.824925 -116.968925 14 383ft 0kts
02-Aug-21 20:22 32.824925 -116.968925 14 383ft 0kts
02-Aug-21 20:23 32.824925 -116.968925 14 383ft 0kts
02-Aug-21 20:24 32.824925 -116.968925 14 383ft 0kts
02-Aug-21 20:25 32.824925 -116.968925 14 383ft 0kts
02-Aug-21 20:26 32.824925 -116.968925 14 383ft 0kts
02-Aug-21 20:27 32.824925 -116.968925 14 383ft 0kts
02-Aug-21 20:28 32.824925 -116.968925 14 383ft 0kts
02-Aug-21 20:29 32.824925 -116.968925 14 383ft 0kts
02-Aug-21 20:30 32.824925 -116.968925 14 383ft 0kts
02-Aug-21 20:31 32.824925 -116.968925 14 383ft 0kts
02-Aug-21 20:32 32.824925 -116.968925 14 383ft 0kts
02-Aug-21 20:33 32.824916 -116.968730 119 383ft 5kts
02-Aug-21 20:34 32.824658 -116.966946 90 387ft 5kts
02-Aug-21 20:35 32.824780 -116.964755 66 395ft 7kts
02-Aug-21 20:36 32.825905 -116.964375 337 396ft 0kts
02-Aug-21 20:37 32.826695 -116.965985 281 392ft 24kts
02-Aug-21 20:38 32.852866 -116.992994 350 1553ft 217kts
02-Aug-21 20:39 32.920612 -117.004503 350 2913ft 272kts
02-Aug-21 20:40 32.993251 -117.018259 351 4144ft 255kts
02-Aug-21 20:41 33.062529 -117.031101 350 5986ft 253kts
02-Aug-21 20:42 33.117608 -116.998389 70 7921ft 253kts
02-Aug-21 20:43 33.123103 -116.913240 87 9771ft 265kts
02-Aug-21 20:44 33.127570 -116.824550 87 11572ft 271kts
02-Aug-21 20:45 33.132490 -116.734122 87 13240ft 275kts
02-Aug-21 20:46 33.137406 -116.642930 88 14834ft 277kts
02-Aug-21 20:47 33.168879 -116.561231 39 16436ft 289kts
02-Aug-21 20:48 33.233994 -116.504263 39 18021ft 294kts
02-Aug-21 20:49 33.300164 -116.446954 40 19594ft 295kts
02-Aug-21 20:50 33.369303 -116.386597 39 20617ft 319kts
02-Aug-21 20:51 33.442858 -116.322327 39 21623ft 335kts
02-Aug-21 20:52 33.519426 -116.255300 39 22587ft 347kts
02-Aug-21 20:53 33.600361 -116.184213 39 22842ft 375kts
02-Aug-21 20:54 33.688453 -116.110476 36 22876ft 397kts
02-Aug-21 20:55 33.782006 -116.036239 36 22879ft 409kts
02-Aug-21 20:56 33.877440 -115.959566 36 22882ft 417kts
02-Aug-21 20:57 33.974348 -115.881333 36 22884ft 421kts
02-Aug-21 20:58 34.071579 -115.802618 36 22884ft 424kts
02-Aug-21 20:59 34.162447 -115.712888 45 22902ft 421kts
02-Aug-21 21:00 34.248362 -115.616627 45 22932ft 421kts
02-Aug-21 21:01 34.338644 -115.526813 29 22989ft 425kts
02-Aug-21 21:02 34.449625 -115.475249 21 22161ft 435kts
02-Aug-21 21:03 34.563472 -115.425880 21 20358ft 433kts
02-Aug-21 21:04 34.675361 -115.377058 21 18545ft 422kts
02-Aug-21 21:05 34.784603 -115.331365 13 16740ft 414kts
02-Aug-21 21:06 34.889846 -115.284816 23 14948ft 392kts
02-Aug-21 21:07 34.988689 -115.236649 23 13151ft 376kts
02-Aug-21 21:08 35.079933 -115.190391 24 12894ft 334kts
02-Aug-21 21:09 35.162007 -115.148091 24 12823ft 313kts
02-Aug-21 21:10 35.240724 -115.104883 26 12292ft 310kts
02-Aug-21 21:11 35.319419 -115.060017 26 10697ft 312kts
02-Aug-21 21:12 35.395509 -115.015045 26 9821ft 284kts
02-Aug-21 21:13 35.462496 -114.976275 11 9834ft 254kts
02-Aug-21 21:14 35.529863 -115.000102 339 8790ft 266kts
02-Aug-21 21:15 35.600058 -115.029998 340 6921ft 255kts
02-Aug-21 21:16 35.659700 -115.054886 339 6877ft 202kts
02-Aug-21 21:17 35.704585 -115.089305 316 7043ft 196kts
02-Aug-21 21:18 35.746291 -115.136626 315 7039ft 211kts
02-Aug-21 21:19 35.790484 -115.187020 315 7047ft 224kts
02-Aug-21 21:20 35.839099 -115.242816 315 7049ft 249kts
02-Aug-21 21:21 35.890866 -115.302484 316 7041ft 259kts
02-Aug-21 21:22 35.947349 -115.357095 354 7032ft 263kts
02-Aug-21 21:23 36.019103 -115.342137 11 7017ft 260kts
02-Aug-21 21:24 36.089836 -115.324638 11 7007ft 259kts
02-Aug-21 21:25 36.160877 -115.306994 12 6902ft 263kts
02-Aug-21 21:26 36.228879 -115.273372 32 6338ft 274kts
02-Aug-21 21:27 36.284120 -115.207912 54 5512ft 282kts
02-Aug-21 21:28 36.284348 -115.122404 113 5785ft 241kts
02-Aug-21 21:29 36.309504 -115.065876 338 5629ft 217kts
02-Aug-21 21:30 36.354795 -115.108103 296 5431ft 212kts
02-Aug-21 21:31 36.343307 -115.172404 226 5202ft 200kts
02-Aug-21 21:32 36.304495 -115.215825 204 5158ft 183kts
02-Aug-21 21:33 36.251200 -115.225654 194 3825ft 189kts
02-Aug-21 21:34 36.214702 -115.199029 143 2313ft 128kts
02-Aug-21 21:35 36.204987 -115.187257 208 2158ft 3kts
02-Aug-21 21:36 36.204665 -115.187603 220 2159ft 2kts
02-Aug-21 21:37 36.205190 -115.188996 314 2165ft 11kts
02-Aug-21 21:38 36.204859 -115.191433 317 2171ft 6kts

Navigation Log

Ident Type
Flight plan parsing failed, navigation log unavailable